sensor_id;sensor_type;location;lat;lon;timestamp;temperature;humidity
20973;DHT22;10645;52.370;13.314;2024-01-16T00:02:01;-0.30;99.90
20973;DHT22;10645;52.370;13.314;2024-01-16T00:04:28;-0.20;99.90
20973;DHT22;10645;52.370;13.314;2024-01-16T00:06:55;-0.20;99.90
20973;DHT22;10645;52.370;13.314;2024-01-16T00:09:21;-0.30;99.90
20973;DHT22;10645;52.370;13.314;2024-01-16T00:11:47;-0.30;99.90
20973;DHT22;10645;52.370;13.314;2024-01-16T00:14:13;-0.40;99.90
20973;DHT22;10645;52.370;13.314;2024-01-16T00:16:43;-0.40;99.90
20973;DHT22;10645;52.370;13.314;2024-01-16T00:19:10;-0.40;99.90
20973;DHT22;10645;52.370;13.314;2024-01-16T00:21:41;-0.40;99.90
20973;DHT22;10645;52.370;13.314;2024-01-16T00:24:08;-0.40;99.90
20973;DHT22;10645;52.370;13.314;2024-01-16T00:26:34;-0.50;99.90
20973;DHT22;10645;52.370;13.314;2024-01-16T00:29:00;-0.50;99.90
20973;DHT22;10645;52.370;13.314;2024-01-16T00:31:27;-0.50;99.90
20973;DHT22;10645;52.370;13.314;2024-01-16T00:33:53;-0.50;99.90
20973;DHT22;10645;52.370;13.314;2024-01-16T00:36:19;-0.50;99.90
20973;DHT22;10645;52.370;13.314;2024-01-16T00:38:45;-0.50;99.90
20973;DHT22;10645;52.370;13.314;2024-01-16T00:41:15;-0.60;99.90
20973;DHT22;10645;52.370;13.314;2024-01-16T00:43:43;-0.50;99.90
20973;DHT22;10645;52.370;13.314;2024-01-16T00:46:09;-0.50;99.90
20973;DHT22;10645;52.370;13.314;2024-01-16T00:48:35;-0.50;99.90
20973;DHT22;10645;52.370;13.314;2024-01-16T00:51:01;-0.50;99.90
20973;DHT22;10645;52.370;13.314;2024-01-16T00:53:27;-0.60;99.90
20973;DHT22;10645;52.370;13.314;2024-01-16T00:55:54;-0.50;99.90
20973;DHT22;10645;52.370;13.314;2024-01-16T00:58:23;-0.60;99.90
20973;DHT22;10645;52.370;13.314;2024-01-16T01:00:49;-0.60;99.90
20973;DHT22;10645;52.370;13.314;2024-01-16T01:03:15;-0.60;99.90
20973;DHT22;10645;52.370;13.314;2024-01-16T01:05:41;-0.70;99.90
20973;DHT22;10645;52.370;13.314;2024-01-16T01:08:08;-0.70;99.90
20973;DHT22;10645;52.370;13.314;2024-01-16T01:10:34;-0.80;99.90
20973;DHT22;10645;52.370;13.314;2024-01-16T01:13:00;-0.70;99.90
20973;DHT22;10645;52.370;13.314;2024-01-16T01:15:26;-0.70;99.90
20973;DHT22;10645;52.370;13.314;2024-01-16T01:17:52;-0.70;99.90
20973;DHT22;10645;52.370;13.314;2024-01-16T01:20:20;-0.70;99.90
20973;DHT22;10645;52.370;13.314;2024-01-16T01:22:46;-0.70;99.90
20973;DHT22;10645;52.370;13.314;2024-01-16T01:25:12;-0.70;99.90
20973;DHT22;10645;52.370;13.314;2024-01-16T01:27:39;-0.80;99.90
20973;DHT22;10645;52.370;13.314;2024-01-16T01:30:07;-0.90;99.90
20973;DHT22;10645;52.370;13.314;2024-01-16T01:32:34;-0.90;99.90
20973;DHT22;10645;52.370;13.314;2024-01-16T01:35:01;-1.00;99.90
20973;DHT22;10645;52.370;13.314;2024-01-16T01:37:27;-1.00;99.90
20973;DHT22;10645;52.370;13.314;2024-01-16T01:39:53;-1.00;99.90
20973;DHT22;10645;52.370;13.314;2024-01-16T01:42:19;-1.00;99.90
20973;DHT22;10645;52.370;13.314;2024-01-16T01:44:45;-1.00;99.90
20973;DHT22;10645;52.370;13.314;2024-01-16T01:47:11;-1.00;99.90
20973;DHT22;10645;52.370;13.314;2024-01-16T01:49:37;-1.00;99.90
20973;DHT22;10645;52.370;13.314;2024-01-16T01:52:04;-1.00;99.90
20973;DHT22;10645;52.370;13.314;2024-01-16T01:54:31;-1.10;99.90
20973;DHT22;10645;52.370;13.314;2024-01-16T01:56:58;-1.20;99.90
20973;DHT22;10645;52.370;13.314;2024-01-16T01:59:24;-1.30;99.90
20973;DHT22;10645;52.370;13.314;2024-01-16T02:01:52;-1.50;99.90
20973;DHT22;10645;52.370;13.314;2024-01-16T02:04:19;-1.70;99.90
20973;DHT22;10645;52.370;13.314;2024-01-16T02:06:46;-1.80;99.90
20973;DHT22;10645;52.370;13.314;2024-01-16T02:09:12;-1.90;99.90
20973;DHT22;10645;52.370;13.314;2024-01-16T02:11:42;-2.00;99.90
20973;DHT22;10645;52.370;13.314;2024-01-16T02:14:09;-2.10;99.90
20973;DHT22;10645;52.370;13.314;2024-01-16T02:16:37;-2.10;99.90
20973;DHT22;10645;52.370;13.314;2024-01-16T02:19:04;-2.20;99.90
20973;DHT22;10645;52.370;13.314;2024-01-16T02:21:36;-2.20;99.90
20973;DHT22;10645;52.370;13.314;2024-01-16T02:24:07;-2.20;99.90
20973;DHT22;10645;52.370;13.314;2024-01-16T02:26:34;-2.20;99.90
20973;DHT22;10645;52.370;13.314;2024-01-16T02:29:01;-2.20;99.90
20973;DHT22;10645;52.370;13.314;2024-01-16T02:31:28;-2.20;99.90
20973;DHT22;10645;52.370;13.314;2024-01-16T02:33:54;-2.20;99.90
20973;DHT22;10645;52.370;13.314;2024-01-16T02:36:20;-2.20;99.90
20973;DHT22;10645;52.370;13.314;2024-01-16T02:38:46;-2.20;99.90
20973;DHT22;10645;52.370;13.314;2024-01-16T02:41:14;-2.10;99.90
20973;DHT22;10645;52.370;13.314;2024-01-16T02:43:40;-2.10;99.90
20973;DHT22;10645;52.370;13.314;2024-01-16T02:46:06;-2.10;99.90
20973;DHT22;10645;52.370;13.314;2024-01-16T02:48:32;-2.10;99.90
20973;DHT22;10645;52.370;13.314;2024-01-16T02:50:59;-2.10;99.90
20973;DHT22;10645;52.370;13.314;2024-01-16T02:53:25;-2.00;99.90
20973;DHT22;10645;52.370;13.314;2024-01-16T02:55:51;-1.90;99.90
20973;DHT22;10645;52.370;13.314;2024-01-16T02:58:17;-1.90;99.90
20973;DHT22;10645;52.370;13.314;2024-01-16T03:00:43;-1.80;99.90
20973;DHT22;10645;52.370;13.314;2024-01-16T03:03:10;-1.80;99.90
20973;DHT22;10645;52.370;13.314;2024-01-16T03:05:36;-1.80;99.90
20973;DHT22;10645;52.370;13.314;2024-01-16T03:08:03;-1.70;99.90
20973;DHT22;10645;52.370;13.314;2024-01-16T03:10:29;-1.70;99.90
20973;DHT22;10645;52.370;13.314;2024-01-16T03:12:55;-1.70;99.90
20973;DHT22;10645;52.370;13.314;2024-01-16T03:15:21;-1.70;99.90
20973;DHT22;10645;52.370;13.314;2024-01-16T03:17:47;-1.70;99.90
20973;DHT22;10645;52.370;13.314;2024-01-16T03:20:14;-1.70;99.90
20973;DHT22;10645;52.370;13.314;2024-01-16T03:22:40;-1.70;99.90
20973;DHT22;10645;52.370;13.314;2024-01-16T03:25:08;-1.70;99.90
20973;DHT22;10645;52.370;13.314;2024-01-16T03:27:34;-1.70;99.90
20973;DHT22;10645;52.370;13.314;2024-01-16T03:30:01;-1.70;99.90
20973;DHT22;10645;52.370;13.314;2024-01-16T03:32:28;-1.70;99.90
20973;DHT22;10645;52.370;13.314;2024-01-16T03:34:54;-1.70;99.90
20973;DHT22;10645;52.370;13.314;2024-01-16T03:37:20;-1.70;99.90
20973;DHT22;10645;52.370;13.314;2024-01-16T03:39:46;-1.70;99.90
20973;DHT22;10645;52.370;13.314;2024-01-16T03:42:12;-1.60;99.90
20973;DHT22;10645;52.370;13.314;2024-01-16T03:44:42;-1.60;99.90
20973;DHT22;10645;52.370;13.314;2024-01-16T03:47:08;-1.60;99.90
20973;DHT22;10645;52.370;13.314;2024-01-16T03:49:34;-1.70;99.90
20973;DHT22;10645;52.370;13.314;2024-01-16T03:52:01;-1.60;99.90
20973;DHT22;10645;52.370;13.314;2024-01-16T03:54:27;-1.60;99.90
20973;DHT22;10645;52.370;13.314;2024-01-16T03:56:53;-1.60;99.90
20973;DHT22;10645;52.370;13.314;2024-01-16T03:59:20;-1.70;99.90
20973;DHT22;10645;52.370;13.314;2024-01-16T04:01:46;-1.60;99.90
20973;DHT22;10645;52.370;13.314;2024-01-16T04:04:14;-1.70;99.90
20973;DHT22;10645;52.370;13.314;2024-01-16T04:06:40;-1.70;99.90
20973;DHT22;10645;52.370;13.314;2024-01-16T04:09:08;-1.70;99.90
20973;DHT22;10645;52.370;13.314;2024-01-16T04:11:34;-1.60;99.90
20973;DHT22;10645;52.370;13.314;2024-01-16T04:14:00;-1.70;99.90
20973;DHT22;10645;52.370;13.314;2024-01-16T04:16:27;-1.60;99.90
20973;DHT22;10645;52.370;13.314;2024-01-16T04:18:53;-1.60;99.90
20973;DHT22;10645;52.370;13.314;2024-01-16T04:21:19;-1.60;99.90
20973;DHT22;10645;52.370;13.314;2024-01-16T04:23:45;-1.60;99.90
20973;DHT22;10645;52.370;13.314;2024-01-16T04:26:11;-1.60;99.90
20973;DHT22;10645;52.370;13.314;2024-01-16T04:28:37;-1.70;99.90
20973;DHT22;10645;52.370;13.314;2024-01-16T04:31:04;-1.70;99.90
20973;DHT22;10645;52.370;13.314;2024-01-16T04:33:30;-1.70;99.90
20973;DHT22;10645;52.370;13.314;2024-01-16T04:35:57;-1.70;99.90
20973;DHT22;10645;52.370;13.314;2024-01-16T04:38:23;-1.70;99.90
20973;DHT22;10645;52.370;13.314;2024-01-16T04:40:49;-1.70;99.90
20973;DHT22;10645;52.370;13.314;2024-01-16T04:43:16;-1.70;99.90
20973;DHT22;10645;52.370;13.314;2024-01-16T04:45:42;-1.70;99.90
20973;DHT22;10645;52.370;13.314;2024-01-16T04:48:08;-1.80;99.90
20973;DHT22;10645;52.370;13.314;2024-01-16T04:50:35;-1.90;99.90
20973;DHT22;10645;52.370;13.314;2024-01-16T04:53:01;-1.90;99.90
20973;DHT22;10645;52.370;13.314;2024-01-16T04:55:28;-1.90;99.90
20973;DHT22;10645;52.370;13.314;2024-01-16T04:57:55;-2.00;99.90
20973;DHT22;10645;52.370;13.314;2024-01-16T05:00:21;-2.00;99.90
20973;DHT22;10645;52.370;13.314;2024-01-16T05:02:47;-2.00;99.90
20973;DHT22;10645;52.370;13.314;2024-01-16T05:05:13;-2.10;99.90
20973;DHT22;10645;52.370;13.314;2024-01-16T05:07:40;-2.10;99.90
20973;DHT22;10645;52.370;13.314;2024-01-16T05:10:09;-2.20;99.90
20973;DHT22;10645;52.370;13.314;2024-01-16T05:12:35;-2.20;99.90
20973;DHT22;10645;52.370;13.314;2024-01-16T05:15:01;-2.20;99.90
20973;DHT22;10645;52.370;13.314;2024-01-16T05:17:29;-2.20;99.90
20973;DHT22;10645;52.370;13.314;2024-01-16T05:19:55;-2.30;99.90
20973;DHT22;10645;52.370;13.314;2024-01-16T05:22:22;-2.50;99.90
20973;DHT22;10645;52.370;13.314;2024-01-16T05:24:48;-2.60;99.90
20973;DHT22;10645;52.370;13.314;2024-01-16T05:27:14;-2.60;99.90
20973;DHT22;10645;52.370;13.314;2024-01-16T05:29:41;-2.60;99.90
20973;DHT22;10645;52.370;13.314;2024-01-16T05:32:07;-2.70;99.90
20973;DHT22;10645;52.370;13.314;2024-01-16T05:34:36;-2.80;99.90
20973;DHT22;10645;52.370;13.314;2024-01-16T05:37:03;-2.90;99.90
20973;DHT22;10645;52.370;13.314;2024-01-16T05:39:29;-2.90;99.90
20973;DHT22;10645;52.370;13.314;2024-01-16T05:41:55;-3.00;99.90
20973;DHT22;10645;52.370;13.314;2024-01-16T05:44:21;-3.00;99.90
20973;DHT22;10645;52.370;13.314;2024-01-16T05:46:48;-3.20;99.90
20973;DHT22;10645;52.370;13.314;2024-01-16T05:49:14;-3.30;99.90
20973;DHT22;10645;52.370;13.314;2024-01-16T05:51:40;-3.30;99.90
20973;DHT22;10645;52.370;13.314;2024-01-16T05:54:06;-3.30;99.90
20973;DHT22;10645;52.370;13.314;2024-01-16T05:56:32;-3.40;99.90
20973;DHT22;10645;52.370;13.314;2024-01-16T05:58:59;-3.40;99.90
20973;DHT22;10645;52.370;13.314;2024-01-16T06:01:26;-3.50;99.90
20973;DHT22;10645;52.370;13.314;2024-01-16T06:03:53;-3.50;99.90
20973;DHT22;10645;52.370;13.314;2024-01-16T06:06:19;-3.60;99.90
20973;DHT22;10645;52.370;13.314;2024-01-16T06:08:45;-3.60;99.90
20973;DHT22;10645;52.370;13.314;2024-01-16T06:11:11;-3.60;99.90
20973;DHT22;10645;52.370;13.314;2024-01-16T06:13:39;-3.50;99.90
20973;DHT22;10645;52.370;13.314;2024-01-16T06:16:08;-3.30;99.90
20973;DHT22;10645;52.370;13.314;2024-01-16T06:18:34;-3.20;99.90
20973;DHT22;10645;52.370;13.314;2024-01-16T06:21:02;-3.30;99.90
20973;DHT22;10645;52.370;13.314;2024-01-16T06:23:28;-3.30;99.90
20973;DHT22;10645;52.370;13.314;2024-01-16T06:25:55;-3.30;99.90
20973;DHT22;10645;52.370;13.314;2024-01-16T06:28:21;-3.40;99.90
20973;DHT22;10645;52.370;13.314;2024-01-16T06:30:47;-3.50;99.90
20973;DHT22;10645;52.370;13.314;2024-01-16T06:33:13;-3.50;99.90
20973;DHT22;10645;52.370;13.314;2024-01-16T06:35:39;-3.50;99.90
20973;DHT22;10645;52.370;13.314;2024-01-16T06:38:05;-3.50;99.90
20973;DHT22;10645;52.370;13.314;2024-01-16T06:40:31;-3.60;99.90
20973;DHT22;10645;52.370;13.314;2024-01-16T06:42:57;-3.60;99.90
20973;DHT22;10645;52.370;13.314;2024-01-16T06:45:23;-3.60;99.90
20973;DHT22;10645;52.370;13.314;2024-01-16T06:47:52;-3.70;99.90
20973;DHT22;10645;52.370;13.314;2024-01-16T06:50:18;-3.70;99.90
20973;DHT22;10645;52.370;13.314;2024-01-16T06:52:45;-3.60;99.90
20973;DHT22;10645;52.370;13.314;2024-01-16T06:55:11;-3.60;99.90
20973;DHT22;10645;52.370;13.314;2024-01-16T06:57:37;-3.60;99.90
20973;DHT22;10645;52.370;13.314;2024-01-16T07:00:04;-3.50;99.90
20973;DHT22;10645;52.370;13.314;2024-01-16T07:02:33;-3.50;99.90
20973;DHT22;10645;52.370;13.314;2024-01-16T07:04:59;-3.40;99.90
20973;DHT22;10645;52.370;13.314;2024-01-16T07:07:25;-3.40;99.90
20973;DHT22;10645;52.370;13.314;2024-01-16T07:09:51;-3.20;99.90
20973;DHT22;10645;52.370;13.314;2024-01-16T07:12:17;-3.00;99.90
20973;DHT22;10645;52.370;13.314;2024-01-16T07:14:44;-2.80;99.90
20973;DHT22;10645;52.370;13.314;2024-01-16T07:17:10;-2.60;99.90
20973;DHT22;10645;52.370;13.314;2024-01-16T07:19:36;-2.60;99.90
20973;DHT22;10645;52.370;13.314;2024-01-16T07:22:02;-2.40;99.90
20973;DHT22;10645;52.370;13.314;2024-01-16T07:24:28;-2.40;99.90
20973;DHT22;10645;52.370;13.314;2024-01-16T07:26:54;-2.40;99.90
20973;DHT22;10645;52.370;13.314;2024-01-16T07:29:20;-2.30;99.90
20973;DHT22;10645;52.370;13.314;2024-01-16T07:31:46;-2.30;99.90
20973;DHT22;10645;52.370;13.314;2024-01-16T07:34:12;-2.30;99.90
20973;DHT22;10645;52.370;13.314;2024-01-16T07:36:43;-2.20;99.90
20973;DHT22;10645;52.370;13.314;2024-01-16T07:39:09;-2.20;99.90
20973;DHT22;10645;52.370;13.314;2024-01-16T07:41:35;-2.20;99.90
20973;DHT22;10645;52.370;13.314;2024-01-16T07:44:01;-2.10;99.90
20973;DHT22;10645;52.370;13.314;2024-01-16T07:46:28;-2.00;99.90
20973;DHT22;10645;52.370;13.314;2024-01-16T07:48:54;-2.00;99.90
20973;DHT22;10645;52.370;13.314;2024-01-16T07:51:20;-1.90;99.90
20973;DHT22;10645;52.370;13.314;2024-01-16T07:53:46;-1.90;99.90
20973;DHT22;10645;52.370;13.314;2024-01-16T07:56:14;-1.80;99.90
20973;DHT22;10645;52.370;13.314;2024-01-16T07:58:40;-1.70;99.90
20973;DHT22;10645;52.370;13.314;2024-01-16T08:01:07;-1.70;99.90
20973;DHT22;10645;52.370;13.314;2024-01-16T08:03:33;-1.60;99.90
20973;DHT22;10645;52.370;13.314;2024-01-16T08:05:59;-1.50;99.90
20973;DHT22;10645;52.370;13.314;2024-01-16T08:08:25;-1.40;99.90
20973;DHT22;10645;52.370;13.314;2024-01-16T08:10:51;-1.30;99.90
20973;DHT22;10645;52.370;13.314;2024-01-16T08:13:17;-1.20;99.90
20973;DHT22;10645;52.370;13.314;2024-01-16T08:15:43;-1.10;99.90
20973;DHT22;10645;52.370;13.314;2024-01-16T08:18:09;-1.00;99.90
20973;DHT22;10645;52.370;13.314;2024-01-16T08:20:35;-0.90;99.90
20973;DHT22;10645;52.370;13.314;2024-01-16T08:23:01;-0.80;99.90
20973;DHT22;10645;52.370;13.314;2024-01-16T08:25:28;-0.80;99.90
20973;DHT22;10645;52.370;13.314;2024-01-16T08:27:54;-0.60;99.90
20973;DHT22;10645;52.370;13.314;2024-01-16T08:30:20;-0.50;99.90
20973;DHT22;10645;52.370;13.314;2024-01-16T08:32:46;-0.50;99.90
20973;DHT22;10645;52.370;13.314;2024-01-16T08:35:12;-0.40;99.90
20973;DHT22;10645;52.370;13.314;2024-01-16T08:37:38;-0.40;99.90
20973;DHT22;10645;52.370;13.314;2024-01-16T08:40:05;-0.30;99.90
20973;DHT22;10645;52.370;13.314;2024-01-16T08:42:31;-0.40;99.90
20973;DHT22;10645;52.370;13.314;2024-01-16T08:44:57;-0.40;99.90
20973;DHT22;10645;52.370;13.314;2024-01-16T08:47:23;-0.40;99.90
20973;DHT22;10645;52.370;13.314;2024-01-16T08:49:49;-0.40;99.90
20973;DHT22;10645;52.370;13.314;2024-01-16T08:52:15;-0.30;99.90
20973;DHT22;10645;52.370;13.314;2024-01-16T08:54:42;-0.20;99.90
20973;DHT22;10645;52.370;13.314;2024-01-16T08:57:08;0.00;99.90
20973;DHT22;10645;52.370;13.314;2024-01-16T08:59:36;0.00;99.90
20973;DHT22;10645;52.370;13.314;2024-01-16T09:02:02;0.10;99.90
20973;DHT22;10645;52.370;13.314;2024-01-16T09:04:29;0.10;99.90
20973;DHT22;10645;52.370;13.314;2024-01-16T09:06:55;0.10;99.90
20973;DHT22;10645;52.370;13.314;2024-01-16T09:09:21;0.10;99.90
20973;DHT22;10645;52.370;13.314;2024-01-16T09:11:47;0.00;99.90
20973;DHT22;10645;52.370;13.314;2024-01-16T09:14:13;0.00;99.90
20973;DHT22;10645;52.370;13.314;2024-01-16T09:16:39;0.00;99.90
20973;DHT22;10645;52.370;13.314;2024-01-16T09:19:06;0.10;99.90
20973;DHT22;10645;52.370;13.314;2024-01-16T09:21:32;0.10;99.90
20973;DHT22;10645;52.370;13.314;2024-01-16T09:23:58;0.30;99.90
20973;DHT22;10645;52.370;13.314;2024-01-16T09:26:24;0.40;99.90
20973;DHT22;10645;52.370;13.314;2024-01-16T09:28:50;0.40;99.90
20973;DHT22;10645;52.370;13.314;2024-01-16T09:31:17;0.50;99.90
20973;DHT22;10645;52.370;13.314;2024-01-16T09:33:43;0.50;99.90
20973;DHT22;10645;52.370;13.314;2024-01-16T09:36:09;0.50;99.90
20973;DHT22;10645;52.370;13.314;2024-01-16T09:38:36;0.50;99.90
20973;DHT22;10645;52.370;13.314;2024-01-16T09:41:02;0.50;99.90
20973;DHT22;10645;52.370;13.314;2024-01-16T09:43:29;0.60;99.90
20973;DHT22;10645;52.370;13.314;2024-01-16T09:46:00;0.70;99.90
20973;DHT22;10645;52.370;13.314;2024-01-16T09:48:28;0.80;99.90
20973;DHT22;10645;52.370;13.314;2024-01-16T09:50:55;0.70;99.90
20973;DHT22;10645;52.370;13.314;2024-01-16T09:53:21;0.80;99.90
20973;DHT22;10645;52.370;13.314;2024-01-16T09:55:49;0.80;99.90
20973;DHT22;10645;52.370;13.314;2024-01-16T09:58:19;0.80;99.90
20973;DHT22;10645;52.370;13.314;2024-01-16T10:00:46;1.00;99.90
20973;DHT22;10645;52.370;13.314;2024-01-16T10:03:13;1.00;99.90
20973;DHT22;10645;52.370;13.314;2024-01-16T10:05:41;1.10;99.90
20973;DHT22;10645;52.370;13.314;2024-01-16T10:08:08;1.10;99.90
20973;DHT22;10645;52.370;13.314;2024-01-16T10:10:34;1.20;99.90
20973;DHT22;10645;52.370;13.314;2024-01-16T10:13:00;1.30;99.90
20973;DHT22;10645;52.370;13.314;2024-01-16T10:15:27;1.30;99.90
20973;DHT22;10645;52.370;13.314;2024-01-16T10:17:53;1.40;99.90
20973;DHT22;10645;52.370;13.314;2024-01-16T10:20:32;1.40;99.90
20973;DHT22;10645;52.370;13.314;2024-01-16T10:22:58;1.50;99.90
20973;DHT22;10645;52.370;13.314;2024-01-16T10:25:24;1.60;99.90
20973;DHT22;10645;52.370;13.314;2024-01-16T10:28:03;1.70;99.90
20973;DHT22;10645;52.370;13.314;2024-01-16T10:30:30;1.80;99.90
20973;DHT22;10645;52.370;13.314;2024-01-16T10:33:12;1.80;99.90
20973;DHT22;10645;52.370;13.314;2024-01-16T10:35:39;1.90;99.90
20973;DHT22;10645;52.370;13.314;2024-01-16T10:38:06;1.90;99.90
20973;DHT22;10645;52.370;13.314;2024-01-16T10:40:32;2.00;99.90
20973;DHT22;10645;52.370;13.314;2024-01-16T10:43:00;2.00;99.90
20973;DHT22;10645;52.370;13.314;2024-01-16T10:45:26;2.10;99.90
20973;DHT22;10645;52.370;13.314;2024-01-16T10:48:06;2.00;99.90
20973;DHT22;10645;52.370;13.314;2024-01-16T10:50:34;1.90;99.90
20973;DHT22;10645;52.370;13.314;2024-01-16T10:53:03;1.80;99.90
20973;DHT22;10645;52.370;13.314;2024-01-16T10:55:30;1.70;99.90
20973;DHT22;10645;52.370;13.314;2024-01-16T10:57:57;1.70;99.90
20973;DHT22;10645;52.370;13.314;2024-01-16T11:00:26;1.60;99.90
20973;DHT22;10645;52.370;13.314;2024-01-16T11:03:04;1.60;99.90
20973;DHT22;10645;52.370;13.314;2024-01-16T11:05:31;1.70;99.90
20973;DHT22;10645;52.370;13.314;2024-01-16T11:07:59;1.70;99.90
20973;DHT22;10645;52.370;13.314;2024-01-16T11:10:27;1.90;99.90
20973;DHT22;10645;52.370;13.314;2024-01-16T11:12:55;1.90;99.90
20973;DHT22;10645;52.370;13.314;2024-01-16T11:15:25;2.00;99.90
20973;DHT22;10645;52.370;13.314;2024-01-16T11:17:52;2.00;99.90
20973;DHT22;10645;52.370;13.314;2024-01-16T11:20:19;2.10;99.90
20973;DHT22;10645;52.370;13.314;2024-01-16T11:22:47;2.10;99.90
20973;DHT22;10645;52.370;13.314;2024-01-16T11:25:16;2.10;99.90
20973;DHT22;10645;52.370;13.314;2024-01-16T11:27:45;2.20;99.90
20973;DHT22;10645;52.370;13.314;2024-01-16T11:30:29;2.20;99.90
20973;DHT22;10645;52.370;13.314;2024-01-16T11:32:55;2.00;99.90
20973;DHT22;10645;52.370;13.314;2024-01-16T11:35:35;1.90;99.90
20973;DHT22;10645;52.370;13.314;2024-01-16T11:38:13;1.90;99.90
20973;DHT22;10645;52.370;13.314;2024-01-16T11:40:41;1.80;99.90
20973;DHT22;10645;52.370;13.314;2024-01-16T11:46:00;1.80;99.90
20973;DHT22;10645;52.370;13.314;2024-01-16T11:48:26;1.70;99.90
20973;DHT22;10645;52.370;13.314;2024-01-16T11:50:53;1.80;99.90
20973;DHT22;10645;52.370;13.314;2024-01-16T11:53:35;1.80;99.90
20973;DHT22;10645;52.370;13.314;2024-01-16T11:59:08;1.80;99.90
20973;DHT22;10645;52.370;13.314;2024-01-16T12:01:43;1.80;99.90
20973;DHT22;10645;52.370;13.314;2024-01-16T12:04:10;1.90;99.90
20973;DHT22;10645;52.370;13.314;2024-01-16T12:06:37;1.90;99.90
20973;DHT22;10645;52.370;13.314;2024-01-16T12:09:13;2.00;99.90
20973;DHT22;10645;52.370;13.314;2024-01-16T12:11:40;2.10;99.90
20973;DHT22;10645;52.370;13.314;2024-01-16T12:14:13;2.10;99.90
20973;DHT22;10645;52.370;13.314;2024-01-16T12:16:39;2.20;99.90
20973;DHT22;10645;52.370;13.314;2024-01-16T12:19:09;2.10;99.90
20973;DHT22;10645;52.370;13.314;2024-01-16T12:21:39;2.20;99.90
20973;DHT22;10645;52.370;13.314;2024-01-16T12:24:05;2.10;99.90
20973;DHT22;10645;52.370;13.314;2024-01-16T12:26:32;2.10;99.90
20973;DHT22;10645;52.370;13.314;2024-01-16T12:28:58;2.10;99.90
20973;DHT22;10645;52.370;13.314;2024-01-16T12:31:25;2.10;99.90
20973;DHT22;10645;52.370;13.314;2024-01-16T12:33:51;2.10;99.90
20973;DHT22;10645;52.370;13.314;2024-01-16T12:36:18;2.10;99.90
20973;DHT22;10645;52.370;13.314;2024-01-16T12:38:44;2.00;99.90
20973;DHT22;10645;52.370;13.314;2024-01-16T12:41:11;2.00;99.90
20973;DHT22;10645;52.370;13.314;2024-01-16T12:43:38;2.00;99.90
20973;DHT22;10645;52.370;13.314;2024-01-16T12:46:04;2.10;99.90
20973;DHT22;10645;52.370;13.314;2024-01-16T12:48:32;2.10;99.90
20973;DHT22;10645;52.370;13.314;2024-01-16T12:50:59;2.10;99.90
20973;DHT22;10645;52.370;13.314;2024-01-16T12:53:28;2.10;99.90
20973;DHT22;10645;52.370;13.314;2024-01-16T12:55:58;2.00;99.90
20973;DHT22;10645;52.370;13.314;2024-01-16T12:58:35;2.00;99.90
20973;DHT22;10645;52.370;13.314;2024-01-16T13:01:29;1.80;99.90
20973;DHT22;10645;52.370;13.314;2024-01-16T13:03:57;1.80;99.90
20973;DHT22;10645;52.370;13.314;2024-01-16T13:06:25;1.70;99.90
20973;DHT22;10645;52.370;13.314;2024-01-16T13:09:07;1.70;99.90
20973;DHT22;10645;52.370;13.314;2024-01-16T13:11:51;1.70;99.90
20973;DHT22;10645;52.370;13.314;2024-01-16T13:14:18;1.60;99.90
20973;DHT22;10645;52.370;13.314;2024-01-16T13:16:47;1.60;99.90
20973;DHT22;10645;52.370;13.314;2024-01-16T13:19:19;1.50;99.90
20973;DHT22;10645;52.370;13.314;2024-01-16T13:21:45;1.50;99.90
20973;DHT22;10645;52.370;13.314;2024-01-16T13:24:12;1.40;99.90
20973;DHT22;10645;52.370;13.314;2024-01-16T13:26:39;1.40;99.90
20973;DHT22;10645;52.370;13.314;2024-01-16T13:29:05;1.40;99.90
20973;DHT22;10645;52.370;13.314;2024-01-16T13:31:35;1.40;99.90
20973;DHT22;10645;52.370;13.314;2024-01-16T13:34:01;1.40;99.90
20973;DHT22;10645;52.370;13.314;2024-01-16T13:36:27;1.40;99.90
20973;DHT22;10645;52.370;13.314;2024-01-16T13:38:53;1.40;99.90
20973;DHT22;10645;52.370;13.314;2024-01-16T13:41:20;1.30;99.90
20973;DHT22;10645;52.370;13.314;2024-01-16T13:43:47;1.30;99.90
20973;DHT22;10645;52.370;13.314;2024-01-16T13:46:16;1.30;99.90
20973;DHT22;10645;52.370;13.314;2024-01-16T13:48:43;1.30;99.90
20973;DHT22;10645;52.370;13.314;2024-01-16T13:51:11;1.30;99.90
20973;DHT22;10645;52.370;13.314;2024-01-16T13:53:37;1.40;99.90
20973;DHT22;10645;52.370;13.314;2024-01-16T13:56:03;1.50;99.90
20973;DHT22;10645;52.370;13.314;2024-01-16T13:58:30;1.50;99.90
20973;DHT22;10645;52.370;13.314;2024-01-16T14:00:57;1.50;99.90
20973;DHT22;10645;52.370;13.314;2024-01-16T14:03:23;1.50;99.90
20973;DHT22;10645;52.370;13.314;2024-01-16T14:05:50;1.40;99.90
20973;DHT22;10645;52.370;13.314;2024-01-16T14:08:16;1.40;99.90
20973;DHT22;10645;52.370;13.314;2024-01-16T14:10:42;1.30;99.90
20973;DHT22;10645;52.370;13.314;2024-01-16T14:13:08;1.30;99.90
20973;DHT22;10645;52.370;13.314;2024-01-16T14:15:34;1.20;99.90
20973;DHT22;10645;52.370;13.314;2024-01-16T14:18:02;1.10;99.90
20973;DHT22;10645;52.370;13.314;2024-01-16T14:20:29;1.10;99.90
20973;DHT22;10645;52.370;13.314;2024-01-16T14:22:56;1.10;99.90
20973;DHT22;10645;52.370;13.314;2024-01-16T14:25:22;1.10;99.90
20973;DHT22;10645;52.370;13.314;2024-01-16T14:27:59;1.10;99.90
20973;DHT22;10645;52.370;13.314;2024-01-16T14:30:26;1.10;99.90
20973;DHT22;10645;52.370;13.314;2024-01-16T14:32:53;1.20;99.90
20973;DHT22;10645;52.370;13.314;2024-01-16T14:35:19;1.20;99.90
20973;DHT22;10645;52.370;13.314;2024-01-16T14:37:45;1.20;99.90
20973;DHT22;10645;52.370;13.314;2024-01-16T14:40:12;1.10;99.90
20973;DHT22;10645;52.370;13.314;2024-01-16T14:42:52;1.10;99.90
20973;DHT22;10645;52.370;13.314;2024-01-16T14:45:20;1.10;99.90
20973;DHT22;10645;52.370;13.314;2024-01-16T14:47:47;1.00;99.90
20973;DHT22;10645;52.370;13.314;2024-01-16T14:50:14;1.00;99.90
20973;DHT22;10645;52.370;13.314;2024-01-16T14:52:43;0.90;99.90
20973;DHT22;10645;52.370;13.314;2024-01-16T14:55:10;0.90;99.90
20973;DHT22;10645;52.370;13.314;2024-01-16T14:57:38;0.90;99.90
20973;DHT22;10645;52.370;13.314;2024-01-16T15:00:14;0.80;99.90
20973;DHT22;10645;52.370;13.314;2024-01-16T15:02:46;0.90;99.90
20973;DHT22;10645;52.370;13.314;2024-01-16T15:05:17;1.00;99.90
20973;DHT22;10645;52.370;13.314;2024-01-16T15:07:45;1.00;99.90
20973;DHT22;10645;52.370;13.314;2024-01-16T15:10:12;1.00;99.90
20973;DHT22;10645;52.370;13.314;2024-01-16T15:12:42;1.00;99.90
20973;DHT22;10645;52.370;13.314;2024-01-16T15:15:10;1.00;99.90
20973;DHT22;10645;52.370;13.314;2024-01-16T15:17:37;1.00;99.90
20973;DHT22;10645;52.370;13.314;2024-01-16T15:20:04;1.00;99.90
20973;DHT22;10645;52.370;13.314;2024-01-16T15:22:45;0.90;99.90
20973;DHT22;10645;52.370;13.314;2024-01-16T15:25:12;0.90;99.90
20973;DHT22;10645;52.370;13.314;2024-01-16T15:27:42;0.80;99.90
20973;DHT22;10645;52.370;13.314;2024-01-16T15:30:09;0.70;99.90